Time;durP1;ratioP1;P1;durP2;ratioP2;P2;SDS_P1;SDS_P2;PMS_P1;PMS_P2;Temp;Humidity;BMP_temperature;BMP_pressure;BME280_temperature;BME280_humidity;BME280_pressure;Samples;Min_cycle;Max_cycle;Signal;HPM_P1;HPM_P2
2021/11/29 00:01:24;;;;;;;13.23;9.85;;;;;;;;;;5136291;27;20662;-70
2021/11/29 00:03:52;;;;;;;12.05;8.70;;;;;;;;;;5136259;27;20204;-70
2021/11/29 00:06:19;;;;;;;16.15;8.80;;;;;;;;;;5136319;27;20221;-70
2021/11/29 00:08:47;;;;;;;12.10;8.50;;;;;;;;;;5136580;27;20232;-70
2021/11/29 00:11:15;;;;;;;13.73;7.78;;;;;;;;;;5135714;27;20332;-70
2021/11/29 00:13:43;;;;;;;11.55;8.25;;;;;;;;;;5135948;27;20289;-70
2021/11/29 00:16:11;;;;;;;9.88;8.05;;;;;;;;;;5135988;27;20228;-70
2021/11/29 00:18:38;;;;;;;9.65;6.97;;;;;;;;;;5135494;27;20208;-70
2021/11/29 00:21:06;;;;;;;9.30;7.85;;;;;;;;;;5135824;27;20277;-70
2021/11/29 00:23:33;;;;;;;8.30;7.50;;;;;;;;;;5135743;27;20285;-70
2021/11/29 00:26:00;;;;;;;6.97;6.28;;;;;;;;;;5135395;27;20289;-71
2021/11/29 00:28:29;;;;;;;8.23;7.43;;;;;;;;;;5135635;27;20723;-71
2021/11/29 00:30:56;;;;;;;12.25;6.55;;;;;;;;;;5136367;27;20703;-71
2021/11/29 00:33:23;;;;;;;11.30;6.32;;;;;;;;;;5135980;27;20315;-70
2021/11/29 00:35:51;;;;;;;8.65;6.75;;;;;;;;;;5135573;27;20620;-70
2021/11/29 00:38:18;;;;;;;10.02;5.45;;;;;;;;;;5135522;27;20293;-70
2021/11/29 00:40:47;;;;;;;11.10;7.07;;;;;;;;;;5135387;27;20282;-70
2021/11/29 00:43:14;;;;;;;14.20;7.75;;;;;;;;;;5135216;27;20207;-71
2021/11/29 00:45:43;;;;;;;10.55;6.60;;;;;;;;;;5135440;27;20279;-71
2021/11/29 00:48:10;;;;;;;8.30;6.85;;;;;;;;;;5135249;27;20278;-71
2021/11/29 00:50:38;;;;;;;8.68;6.60;;;;;;;;;;5134782;27;20288;-70
2021/11/29 00:53:06;;;;;;;5.95;5.35;;;;;;;;;;5134802;27;20280;-71
2021/11/29 00:55:33;;;;;;;6.20;5.30;;;;;;;;;;5135446;27;20200;-71
2021/11/29 00:58:00;;;;;;;7.63;6.22;;;;;;;;;;5134634;27;20258;-71
2021/11/29 01:00:28;;;;;;;6.63;5.28;;;;;;;;;;5135082;27;20231;-70
2021/11/29 01:02:57;;;;;;;10.13;4.88;;;;;;;;;;5134380;27;20193;-70
2021/11/29 01:05:25;;;;;;;7.20;5.53;;;;;;;;;;5135041;27;20653;-70
2021/11/29 01:07:52;;;;;;;6.47;4.68;;;;;;;;;;5135407;27;20282;-71
2021/11/29 01:10:20;;;;;;;9.65;5.57;;;;;;;;;;5135081;27;20744;-70
2021/11/29 01:12:47;;;;;;;10.32;6.22;;;;;;;;;;5134915;27;20693;-70
2021/11/29 01:15:18;;;;;;;7.15;5.13;;;;;;;;;;5134913;27;20559;-70
2021/11/29 01:17:46;;;;;;;6.35;4.82;;;;;;;;;;5135245;27;20195;-70
2021/11/29 01:20:15;;;;;;;6.38;4.53;;;;;;;;;;5134549;27;20278;-70
2021/11/29 01:22:42;;;;;;;6.38;4.10;;;;;;;;;;5135528;27;20278;-71
2021/11/29 01:25:10;;;;;;;6.43;5.15;;;;;;;;;;5135295;27;20283;-70
2021/11/29 01:27:38;;;;;;;5.30;4.80;;;;;;;;;;5134713;27;20610;-70
2021/11/29 01:30:06;;;;;;;6.35;4.65;;;;;;;;;;5135202;27;20224;-70
2021/11/29 01:32:34;;;;;;;3.85;3.55;;;;;;;;;;5134510;27;20263;-70
2021/11/29 01:35:01;;;;;;;6.53;4.20;;;;;;;;;;5134522;27;20275;-70
2021/11/29 01:37:30;;;;;;;8.75;4.65;;;;;;;;;;5134438;27;20272;-70
2021/11/29 01:39:57;;;;;;;3.90;3.50;;;;;;;;;;5134451;27;20311;-70
2021/11/29 01:42:24;;;;;;;3.75;3.42;;;;;;;;;;5134180;27;20283;-70
2021/11/29 01:44:51;;;;;;;3.90;3.60;;;;;;;;;;5134520;27;20281;-70
2021/11/29 01:47:21;;;;;;;6.90;4.80;;;;;;;;;;5134129;27;20227;-70
2021/11/29 01:49:49;;;;;;;4.47;4.07;;;;;;;;;;5134732;27;20207;-71
2021/11/29 01:52:16;;;;;;;7.75;3.90;;;;;;;;;;5136102;27;20555;-71
2021/11/29 01:54:44;;;;;;;4.90;3.92;;;;;;;;;;5134928;27;20259;-71
2021/11/29 01:57:12;;;;;;;7.07;4.45;;;;;;;;;;5134667;27;20283;-70
2021/11/29 01:59:39;;;;;;;4.45;3.92;;;;;;;;;;5134618;27;20216;-70
2021/11/29 02:02:06;;;;;;;8.45;4.82;;;;;;;;;;5134801;27;20279;-70
2021/11/29 02:04:34;;;;;;;11.07;4.60;;;;;;;;;;5134781;27;20195;-71
2021/11/29 02:07:01;;;;;;;6.70;5.18;;;;;;;;;;5134700;27;20238;-70
2021/11/29 02:09:28;;;;;;;6.25;4.53;;;;;;;;;;5134551;28;20626;-70
2021/11/29 02:11:57;;;;;;;5.38;4.18;;;;;;;;;;5134366;28;20283;-70
2021/11/29 02:14:24;;;;;;;9.45;5.28;;;;;;;;;;5134959;27;20282;-71
2021/11/29 02:16:51;;;;;;;7.93;4.50;;;;;;;;;;5138810;27;20286;-70
2021/11/29 02:19:18;;;;;;;4.90;4.50;;;;;;;;;;5137997;27;20298;-70
2021/11/29 02:21:47;;;;;;;6.25;3.67;;;;;;;;;;5138200;27;20380;-70
2021/11/29 02:24:16;;;;;;;13.77;3.80;;;;;;;;;;5138121;27;20285;-70
2021/11/29 02:26:43;;;;;;;12.57;4.45;;;;;;;;;;5138087;27;20196;-70
2021/11/29 02:29:12;;;;;;;6.28;5.65;;;;;;;;;;5137920;27;20198;-70
2021/11/29 02:31:40;;;;;;;10.13;4.70;;;;;;;;;;5138120;27;20278;-70
2021/11/29 02:34:08;;;;;;;7.40;3.58;;;;;;;;;;5138301;27;20252;-70
2021/11/29 02:36:35;;;;;;;3.75;2.97;;;;;;;;;;5137984;27;20551;-70
2021/11/29 02:39:04;;;;;;;5.38;3.53;;;;;;;;;;5137536;27;20306;-70
2021/11/29 02:41:32;;;;;;;9.27;3.67;;;;;;;;;;5138004;27;20231;-70
2021/11/29 02:43:59;;;;;;;8.85;4.20;;;;;;;;;;5138165;27;20282;-71
2021/11/29 02:46:26;;;;;;;5.13;4.35;;;;;;;;;;5138554;27;20546;-70
2021/11/29 02:48:54;;;;;;;6.35;3.85;;;;;;;;;;5138249;27;20196;-70
2021/11/29 02:51:22;;;;;;;7.13;3.30;;;;;;;;;;5137499;27;20379;-70
2021/11/29 02:53:50;;;;;;;7.45;3.95;;;;;;;;;;5137820;27;20255;-70
2021/11/29 02:56:19;;;;;;;2.90;2.70;;;;;;;;;;5137708;27;20286;-70
2021/11/29 02:58:46;;;;;;;3.60;3.30;;;;;;;;;;5137479;27;20640;-70
2021/11/29 03:01:13;;;;;;;6.35;3.13;;;;;;;;;;5137129;27;20280;-71
2021/11/29 03:03:48;;;;;;;6.88;3.00;;;;;;;;;;5137456;27;20198;-70
2021/11/29 03:06:16;;;;;;;2.70;2.50;;;;;;;;;;5137516;27;20637;-70
2021/11/29 03:08:43;;;;;;;6.30;3.88;;;;;;;;;;5137246;27;20279;-70
2021/11/29 03:11:11;;;;;;;7.40;3.50;;;;;;;;;;5136973;27;20755;-70
2021/11/29 03:13:39;;;;;;;7.63;3.58;;;;;;;;;;5137292;27;20659;-70
2021/11/29 03:16:06;;;;;;;2.88;2.58;;;;;;;;;;5137493;27;20559;-71
2021/11/29 03:18:35;;;;;;;9.77;3.30;;;;;;;;;;5137931;27;20192;-70
2021/11/29 03:21:03;;;;;;;4.35;3.88;;;;;;;;;;5137990;27;20613;-70
2021/11/29 03:23:31;;;;;;;5.45;3.13;;;;;;;;;;5137743;27;20279;-70
2021/11/29 03:25:58;;;;;;;7.65;3.10;;;;;;;;;;5137281;27;20517;-70
2021/11/29 03:28:25;;;;;;;7.78;3.17;;;;;;;;;;5136493;27;20287;-70
2021/11/29 03:30:54;;;;;;;3.95;2.95;;;;;;;;;;5136772;27;20235;-70
2021/11/29 03:33:21;;;;;;;5.10;3.15;;;;;;;;;;5136864;27;20310;-69
2021/11/29 03:35:49;;;;;;;6.15;3.60;;;;;;;;;;5136754;27;20279;-70
2021/11/29 03:38:16;;;;;;;6.32;3.00;;;;;;;;;;5136676;27;20280;-70
2021/11/29 03:40:43;;;;;;;11.65;3.40;;;;;;;;;;5137239;27;20212;-70
2021/11/29 03:43:10;;;;;;;5.05;3.40;;;;;;;;;;5137674;27;20223;-70
2021/11/29 03:45:37;;;;;;;4.60;2.38;;;;;;;;;;5137697;27;20286;-70
2021/11/29 03:48:06;;;;;;;6.72;2.85;;;;;;;;;;5137919;27;20275;-70
2021/11/29 03:50:34;;;;;;;11.15;4.20;;;;;;;;;;5136777;27;20299;-70
2021/11/29 03:53:01;;;;;;;3.65;3.25;;;;;;;;;;5136706;27;20311;-70
2021/11/29 03:55:28;;;;;;;5.20;3.40;;;;;;;;;;5136363;27;20196;-69
2021/11/29 03:57:55;;;;;;;10.35;3.70;;;;;;;;;;5136363;27;20288;-69
2021/11/29 04:00:23;;;;;;;6.65;3.03;;;;;;;;;;5136218;27;20266;-69
2021/11/29 04:02:50;;;;;;;3.30;2.95;;;;;;;;;;5136322;27;20279;-70
2021/11/29 04:05:19;;;;;;;4.38;3.97;;;;;;;;;;5135776;27;20283;-70
2021/11/29 04:07:47;;;;;;;4.32;3.35;;;;;;;;;;5135741;27;20290;-70
2021/11/29 04:10:14;;;;;;;8.27;4.07;;;;;;;;;;5136066;27;20200;-70
2021/11/29 04:12:42;;;;;;;3.67;2.00;;;;;;;;;;5135709;27;20720;-70
2021/11/29 04:15:10;;;;;;;3.85;3.42;;;;;;;;;;5135617;27;20283;-70
2021/11/29 04:17:39;;;;;;;6.03;3.45;;;;;;;;;;5135955;27;20224;-70
2021/11/29 04:20:08;;;;;;;5.32;2.67;;;;;;;;;;5136542;27;20260;-70
2021/11/29 04:22:37;;;;;;;6.45;2.97;;;;;;;;;;5136154;27;20192;-70
2021/11/29 04:25:04;;;;;;;10.43;3.53;;;;;;;;;;5135919;27;20358;-70
2021/11/29 04:27:32;;;;;;;6.35;3.00;;;;;;;;;;5135527;27;20232;-70
2021/11/29 04:30:04;;;;;;;4.85;3.65;;;;;;;;;;5135992;27;20197;-70
2021/11/29 04:32:31;;;;;;;3.78;2.90;;;;;;;;;;5135419;27;20312;-69
2021/11/29 04:34:58;;;;;;;9.90;3.40;;;;;;;;;;5135551;27;20278;-70
2021/11/29 04:37:26;;;;;;;6.50;3.67;;;;;;;;;;5134761;27;20290;-70
2021/11/29 04:39:54;;;;;;;4.90;3.35;;;;;;;;;;5135383;27;20322;-70
2021/11/29 04:42:21;;;;;;;7.00;3.25;;;;;;;;;;5135839;27;20593;-69
2021/11/29 04:44:49;;;;;;;7.75;3.53;;;;;;;;;;5135377;27;20279;-70
2021/11/29 04:47:16;;;;;;;4.75;4.22;;;;;;;;;;5135453;27;20278;-69
2021/11/29 04:49:43;;;;;;;4.38;3.45;;;;;;;;;;5135030;27;20282;-69
2021/11/29 04:52:10;;;;;;;7.10;4.10;;;;;;;;;;5134930;27;20285;-72
2021/11/29 04:54:38;;;;;;;5.75;3.67;;;;;;;;;;5135342;27;20282;-70
2021/11/29 04:57:06;;;;;;;8.05;4.43;;;;;;;;;;5134981;27;20287;-70
2021/11/29 04:59:34;;;;;;;5.55;3.95;;;;;;;;;;5134996;27;20302;-70
2021/11/29 05:02:02;;;;;;;7.30;3.85;;;;;;;;;;5134974;27;20575;-70
2021/11/29 05:04:29;;;;;;;8.75;4.07;;;;;;;;;;5134668;27;20276;-71
2021/11/29 05:06:56;;;;;;;6.90;4.20;;;;;;;;;;5135006;27;20275;-71
2021/11/29 05:09:23;;;;;;;8.13;3.58;;;;;;;;;;5134904;27;20291;-71
2021/11/29 05:11:51;;;;;;;6.65;3.25;;;;;;;;;;5135229;27;20622;-71
2021/11/29 05:14:20;;;;;;;4.50;4.00;;;;;;;;;;5134605;27;20196;-67
2021/11/29 05:16:47;;;;;;;5.50;4.53;;;;;;;;;;5134941;27;20246;-68
2021/11/29 05:19:15;;;;;;;4.28;3.88;;;;;;;;;;5134402;27;20216;-68
2021/11/29 05:21:42;;;;;;;6.68;3.83;;;;;;;;;;5134723;27;20198;-68
2021/11/29 05:24:09;;;;;;;6.68;3.72;;;;;;;;;;5132370;27;20289;-67
2021/11/29 05:26:36;;;;;;;4.95;3.72;;;;;;;;;;5122933;27;20292;-68
2021/11/29 05:29:04;;;;;;;10.90;4.38;;;;;;;;;;5112407;28;20199;-68
2021/11/29 05:31:32;;;;;;;4.20;3.80;;;;;;;;;;5113361;28;20380;-68
2021/11/29 05:34:01;;;;;;;5.75;3.35;;;;;;;;;;5113502;28;20329;-68
2021/11/29 05:36:28;;;;;;;5.95;4.65;;;;;;;;;;5112292;28;20198;-68
2021/11/29 05:38:55;;;;;;;4.55;4.05;;;;;;;;;;5113021;28;20228;-69
2021/11/29 05:41:23;;;;;;;7.78;4.30;;;;;;;;;;5113230;28;20311;-69
2021/11/29 05:43:50;;;;;;;6.60;4.35;;;;;;;;;;5112745;28;20276;-69
2021/11/29 05:46:21;;;;;;;3.97;3.63;;;;;;;;;;5113695;28;20237;-68
2021/11/29 05:48:51;;;;;;;4.20;3.78;;;;;;;;;;5113243;28;20228;-67
2021/11/29 05:51:18;;;;;;;7.13;3.97;;;;;;;;;;5113768;28;20259;-67
2021/11/29 05:53:47;;;;;;;3.67;3.25;;;;;;;;;;5113512;28;20296;-67
2021/11/29 05:56:14;;;;;;;6.90;4.22;;;;;;;;;;5113508;28;20237;-67
2021/11/29 05:58:41;;;;;;;4.55;3.47;;;;;;;;;;5113249;28;20188;-68
2021/11/29 06:01:09;;;;;;;4.03;3.72;;;;;;;;;;5113056;28;20261;-68
2021/11/29 06:03:36;;;;;;;5.00;3.67;;;;;;;;;;5113210;28;20325;-67
2021/11/29 06:06:05;;;;;;;3.50;3.20;;;;;;;;;;5113382;28;20277;-68
2021/11/29 06:08:33;;;;;;;4.63;3.30;;;;;;;;;;5113199;28;20293;-67
2021/11/29 06:11:00;;;;;;;6.70;3.72;;;;;;;;;;5113355;28;20357;-68
2021/11/29 06:13:27;;;;;;;5.18;3.85;;;;;;;;;;5113205;28;20284;-67
2021/11/29 06:15:54;;;;;;;5.65;4.05;;;;;;;;;;5113301;28;20283;-69
2021/11/29 06:18:22;;;;;;;5.40;3.72;;;;;;;;;;5113180;28;20215;-68
2021/11/29 06:20:49;;;;;;;7.82;2.70;;;;;;;;;;5113452;28;20303;-67
2021/11/29 06:23:18;;;;;;;8.07;3.85;;;;;;;;;;5112765;28;20714;-67
2021/11/29 06:25:45;;;;;;;7.22;4.43;;;;;;;;;;5112998;28;20228;-67
2021/11/29 06:28:12;;;;;;;5.20;3.90;;;;;;;;;;5113865;28;20297;-67
2021/11/29 06:30:40;;;;;;;9.63;4.70;;;;;;;;;;5113080;28;20289;-66
2021/11/29 06:33:07;;;;;;;7.05;4.45;;;;;;;;;;5112712;28;20264;-66
2021/11/29 06:35:34;;;;;;;4.15;3.75;;;;;;;;;;5113762;28;20280;-65
2021/11/29 06:38:03;;;;;;;4.65;3.97;;;;;;;;;;5113272;28;20288;-73
2021/11/29 06:40:32;;;;;;;6.45;4.15;;;;;;;;;;5112732;28;20221;-65
2021/11/29 06:43:00;;;;;;;6.07;5.30;;;;;;;;;;5113285;28;20355;-65
2021/11/29 06:45:27;;;;;;;6.03;3.95;;;;;;;;;;5112840;28;20229;-65
2021/11/29 06:47:54;;;;;;;6.30;3.72;;;;;;;;;;5113322;28;20232;-65
2021/11/29 06:50:22;;;;;;;8.52;5.07;;;;;;;;;;5113195;28;20228;-65
2021/11/29 06:52:50;;;;;;;6.05;4.65;;;;;;;;;;5113237;28;20201;-65
2021/11/29 06:55:20;;;;;;;7.53;5.15;;;;;;;;;;5113112;28;20228;-65
2021/11/29 06:57:48;;;;;;;4.68;4.28;;;;;;;;;;5113256;28;20189;-65
2021/11/29 07:00:20;;;;;;;15.45;4.90;;;;;;;;;;5113400;28;20244;-65
2021/11/29 07:02:47;;;;;;;5.38;4.47;;;;;;;;;;5116570;28;20205;-65
2021/11/29 07:05:15;;;;;;;11.98;5.70;;;;;;;;;;5116426;28;20192;-66
2021/11/29 07:07:47;;;;;;;6.20;5.60;;;;;;;;;;5116810;28;20200;-66
2021/11/29 07:10:20;;;;;;;5.90;5.40;;;;;;;;;;5116158;28;20197;-66
2021/11/29 07:12:49;;;;;;;4.75;4.20;;;;;;;;;;5116889;28;20189;-66
2021/11/29 07:15:18;;;;;;;9.32;5.93;;;;;;;;;;5116814;28;20284;-66
2021/11/29 07:17:46;;;;;;;6.20;5.55;;;;;;;;;;5116322;28;20222;-66
2021/11/29 07:20:14;;;;;;;8.52;6.35;;;;;;;;;;5116196;28;20216;-65
2021/11/29 07:22:41;;;;;;;15.63;6.85;;;;;;;;;;5116527;28;20284;-65
2021/11/29 07:25:09;;;;;;;6.15;5.50;;;;;;;;;;5116435;28;20665;-65
2021/11/29 07:27:36;;;;;;;6.32;4.85;;;;;;;;;;5116115;28;20228;-65
2021/11/29 07:30:07;;;;;;;10.23;6.65;;;;;;;;;;5116083;28;20196;-65
2021/11/29 07:32:37;;;;;;;13.57;6.38;;;;;;;;;;5115751;28;20676;-65
2021/11/29 07:35:04;;;;;;;5.53;4.90;;;;;;;;;;5116217;28;20196;-66
2021/11/29 07:37:32;;;;;;;12.35;7.53;;;;;;;;;;5115921;28;20280;-65
2021/11/29 07:40:01;;;;;;;8.40;5.35;;;;;;;;;;5116161;28;20293;-66
2021/11/29 07:42:29;;;;;;;6.47;5.70;;;;;;;;;;5116384;28;20579;-66
2021/11/29 07:44:56;;;;;;;8.32;5.63;;;;;;;;;;5116101;28;20292;-66
2021/11/29 07:47:25;;;;;;;8.30;5.93;;;;;;;;;;5115647;28;20279;-66
2021/11/29 07:49:52;;;;;;;8.80;6.10;;;;;;;;;;5115601;28;20193;-66
2021/11/29 07:52:19;;;;;;;5.38;4.43;;;;;;;;;;5115639;28;20284;-66
2021/11/29 07:54:47;;;;;;;6.05;5.07;;;;;;;;;;5115967;28;20300;-66
2021/11/29 07:57:16;;;;;;;15.30;7.07;;;;;;;;;;5116585;28;20237;-66
2021/11/29 07:59:44;;;;;;;6.90;5.03;;;;;;;;;;5116132;28;20198;-67
2021/11/29 08:02:12;;;;;;;8.50;5.80;;;;;;;;;;5115711;28;20689;-67
2021/11/29 08:04:41;;;;;;;6.72;6.03;;;;;;;;;;5115554;28;20250;-67
2021/11/29 08:07:08;;;;;;;12.52;7.28;;;;;;;;;;5115206;28;20290;-67
2021/11/29 08:09:35;;;;;;;8.25;6.60;;;;;;;;;;5115279;28;20677;-68
2021/11/29 08:12:02;;;;;;;8.20;6.03;;;;;;;;;;5114589;28;20562;-68
2021/11/29 08:14:30;;;;;;;11.25;6.18;;;;;;;;;;5114988;28;20232;-67
2021/11/29 08:16:57;;;;;;;10.40;5.82;;;;;;;;;;5115542;28;20637;-68
2021/11/29 08:19:24;;;;;;;9.15;6.07;;;;;;;;;;5114974;28;20197;-67
2021/11/29 08:21:53;;;;;;;9.15;6.57;;;;;;;;;;5114752;28;20217;-67
2021/11/29 08:24:20;;;;;;;6.65;5.95;;;;;;;;;;5114870;28;20285;-68
2021/11/29 08:26:47;;;;;;;7.63;6.38;;;;;;;;;;5115167;28;20543;-68
2021/11/29 08:29:15;;;;;;;7.53;6.80;;;;;;;;;;5114767;28;20283;-68
2021/11/29 08:31:42;;;;;;;7.65;6.10;;;;;;;;;;5114765;28;20281;-67
2021/11/29 08:34:17;;;;;;;8.57;6.03;;;;;;;;;;5115008;28;20220;-68
2021/11/29 08:36:45;;;;;;;8.70;5.68;;;;;;;;;;5115289;28;20228;-68
2021/11/29 08:39:13;;;;;;;6.22;5.45;;;;;;;;;;5114954;28;20283;-68
2021/11/29 08:41:41;;;;;;;10.10;6.25;;;;;;;;;;5114508;28;20300;-68
2021/11/29 08:44:08;;;;;;;8.93;6.88;;;;;;;;;;5115255;28;20197;-68
2021/11/29 08:46:36;;;;;;;6.60;5.55;;;;;;;;;;5114480;28;20288;-68
2021/11/29 08:49:03;;;;;;;9.43;6.70;;;;;;;;;;5114346;28;20285;-67
2021/11/29 08:51:31;;;;;;;6.70;5.95;;;;;;;;;;5114202;28;20208;-68
2021/11/29 08:53:58;;;;;;;9.05;5.85;;;;;;;;;;5114513;28;20283;-68
2021/11/29 08:56:27;;;;;;;6.47;5.20;;;;;;;;;;5114189;28;20690;-68
2021/11/29 08:59:00;;;;;;;14.10;6.00;;;;;;;;;;5114571;28;20247;-68
2021/11/29 09:01:28;;;;;;;7.20;5.10;;;;;;;;;;5113933;28;20229;-68
2021/11/29 09:03:55;;;;;;;10.32;5.35;;;;;;;;;;5114507;28;20252;-67
2021/11/29 09:06:24;;;;;;;7.07;6.32;;;;;;;;;;5114044;28;20233;-68
2021/11/29 09:08:51;;;;;;;13.90;5.70;;;;;;;;;;5114291;28;20276;-68
2021/11/29 09:11:18;;;;;;;8.85;5.55;;;;;;;;;;5114429;28;20670;-69
2021/11/29 09:13:54;;;;;;;8.20;5.30;;;;;;;;;;5114328;28;20237;-69
2021/11/29 09:16:21;;;;;;;11.25;5.05;;;;;;;;;;5114546;28;20239;-68
2021/11/29 09:18:49;;;;;;;5.80;5.30;;;;;;;;;;5113833;28;20199;-68
2021/11/29 09:21:17;;;;;;;6.65;5.43;;;;;;;;;;5113723;28;20221;-69
2021/11/29 09:23:44;;;;;;;5.43;4.93;;;;;;;;;;5113932;28;20229;-68
2021/11/29 09:26:18;;;;;;;4.85;4.35;;;;;;;;;;5114388;28;20716;-69
2021/11/29 09:28:46;;;;;;;8.23;4.80;;;;;;;;;;5113740;28;20183;-69
2021/11/29 09:31:14;;;;;;;7.43;5.03;;;;;;;;;;5113002;28;20202;-68
2021/11/29 09:33:42;;;;;;;8.25;4.78;;;;;;;;;;5113433;28;20333;-68
2021/11/29 09:36:10;;;;;;;8.70;5.15;;;;;;;;;;5113937;28;20302;-68
2021/11/29 09:38:37;;;;;;;7.38;5.32;;;;;;;;;;5114005;28;20193;-68
2021/11/29 09:41:05;;;;;;;11.45;4.95;;;;;;;;;;5113828;28;20626;-68
2021/11/29 09:43:33;;;;;;;6.65;4.95;;;;;;;;;;5113757;28;20284;-68
2021/11/29 09:46:00;;;;;;;11.27;5.65;;;;;;;;;;5113063;28;20195;-68
2021/11/29 09:48:29;;;;;;;10.73;5.72;;;;;;;;;;5113423;28;20292;-69
2021/11/29 09:50:56;;;;;;;7.65;5.78;;;;;;;;;;5113190;28;20294;-68
2021/11/29 09:53:25;;;;;;;5.43;4.00;;;;;;;;;;5113814;28;20233;-68
2021/11/29 09:55:52;;;;;;;5.03;4.43;;;;;;;;;;5113900;28;20191;-68
2021/11/29 09:58:20;;;;;;;11.93;4.70;;;;;;;;;;5113239;28;20320;-69
2021/11/29 10:00:49;;;;;;;6.18;4.80;;;;;;;;;;5113213;28;20210;-68
2021/11/29 10:03:16;;;;;;;6.70;5.13;;;;;;;;;;5113710;28;20285;-69
2021/11/29 10:05:45;;;;;;;6.63;5.20;;;;;;;;;;5113565;28;20225;-69
2021/11/29 10:08:20;;;;;;;8.90;5.63;;;;;;;;;;5113445;28;20234;-68
2021/11/29 10:10:49;;;;;;;10.60;5.25;;;;;;;;;;5113984;28;20217;-68
2021/11/29 10:13:16;;;;;;;8.45;5.38;;;;;;;;;;5113494;28;20244;-68
2021/11/29 10:15:44;;;;;;;17.98;6.43;;;;;;;;;;5112989;28;20288;-68
2021/11/29 10:18:13;;;;;;;10.45;6.18;;;;;;;;;;5113272;28;20190;-69
2021/11/29 10:20:53;;;;;;;11.02;6.65;;;;;;;;;;5113228;28;20296;-69
2021/11/29 10:23:28;;;;;;;10.38;5.65;;;;;;;;;;5113326;28;20181;-68
2021/11/29 10:25:55;;;;;;;8.63;6.00;;;;;;;;;;5113268;28;20284;-68
2021/11/29 10:28:24;;;;;;;5.15;3.55;;;;;;;;;;5113181;28;20230;-68
2021/11/29 10:31:04;;;;;;;12.95;6.50;;;;;;;;;;5112808;28;20276;-68
2021/11/29 10:33:32;;;;;;;16.45;6.38;;;;;;;;;;5112946;28;20225;-69
2021/11/29 10:36:10;;;;;;;8.32;7.53;;;;;;;;;;5114996;28;20227;-68
2021/11/29 10:38:40;;;;;;;11.77;6.22;;;;;;;;;;5118043;28;20178;-68
2021/11/29 10:41:07;;;;;;;10.15;7.10;;;;;;;;;;5117399;28;20228;-68
2021/11/29 10:43:38;;;;;;;10.55;6.63;;;;;;;;;;5117935;28;20553;-68
2021/11/29 10:46:18;;;;;;;10.80;5.80;;;;;;;;;;5117280;28;20281;-68
2021/11/29 10:48:45;;;;;;;14.07;6.80;;;;;;;;;;5117250;28;20236;-68
2021/11/29 10:51:15;;;;;;;8.40;5.70;;;;;;;;;;5117643;28;20284;-68
2021/11/29 10:53:46;;;;;;;9.68;7.28;;;;;;;;;;5116736;28;20238;-68
2021/11/29 10:56:14;;;;;;;11.55;6.05;;;;;;;;;;5117584;28;20200;-68
2021/11/29 10:58:41;;;;;;;21.42;7.38;;;;;;;;;;5116784;28;20269;-69
2021/11/29 11:01:09;;;;;;;14.45;7.13;;;;;;;;;;5117305;28;20252;-68
2021/11/29 11:03:54;;;;;;;11.95;6.60;;;;;;;;;;5116841;28;20277;-69
2021/11/29 11:06:27;;;;;;;7.18;6.35;;;;;;;;;;5116444;28;20654;-68
2021/11/29 11:08:55;;;;;;;10.35;6.70;;;;;;;;;;5116470;28;20183;-68
2021/11/29 11:11:33;;;;;;;15.38;7.65;;;;;;;;;;5116683;28;20246;-68
2021/11/29 11:14:02;;;;;;;10.75;6.57;;;;;;;;;;5116438;28;20271;-68
2021/11/29 11:16:50;;;;;;;12.07;8.05;;;;;;;;;;5116610;28;20276;-69
2021/11/29 11:19:41;;;;;;;10.98;6.10;;;;;;;;;;5116495;28;20276;-69
2021/11/29 11:22:18;;;;;;;9.57;6.03;;;;;;;;;;5116453;28;20219;-69
2021/11/29 11:24:46;;;;;;;10.35;6.00;;;;;;;;;;5116514;28;20586;-69
2021/11/29 11:27:13;;;;;;;7.35;5.60;;;;;;;;;;5115947;28;20667;-68
2021/11/29 11:29:43;;;;;;;12.75;7.50;;;;;;;;;;5115751;28;20280;-68
2021/11/29 11:32:12;;;;;;;5.22;4.70;;;;;;;;;;5115927;28;20280;-68
2021/11/29 11:34:39;;;;;;;11.23;6.18;;;;;;;;;;5116079;28;20283;-68
2021/11/29 11:37:07;;;;;;;10.73;6.22;;;;;;;;;;5115801;28;20242;-68
2021/11/29 11:39:35;;;;;;;9.60;6.47;;;;;;;;;;5115788;28;20289;-69
2021/11/29 11:42:02;;;;;;;6.40;5.30;;;;;;;;;;5115738;28;20252;-69
2021/11/29 11:44:30;;;;;;;11.25;6.05;;;;;;;;;;5115816;28;20552;-68
2021/11/29 11:47:00;;;;;;;9.00;6.00;;;;;;;;;;5114738;28;20238;-70
2021/11/29 11:49:28;;;;;;;10.30;5.80;;;;;;;;;;5116091;28;20255;-69
2021/11/29 11:51:55;;;;;;;8.10;6.00;;;;;;;;;;5115490;28;20293;-69
2021/11/29 11:54:22;;;;;;;6.93;5.00;;;;;;;;;;5115770;28;20655;-69
2021/11/29 11:56:51;;;;;;;6.28;4.60;;;;;;;;;;5115319;28;20192;-68
2021/11/29 11:59:20;;;;;;;6.78;5.75;;;;;;;;;;5115429;28;20192;-69
2021/11/29 12:01:50;;;;;;;5.90;5.35;;;;;;;;;;5115785;28;20288;-68
2021/11/29 12:04:18;;;;;;;7.95;5.30;;;;;;;;;;5115851;28;20289;-69
2021/11/29 12:06:49;;;;;;;6.93;4.78;;;;;;;;;;5115475;28;20245;-69
2021/11/29 12:09:17;;;;;;;5.90;5.30;;;;;;;;;;5115157;28;20198;-69
2021/11/29 12:11:45;;;;;;;4.90;4.30;;;;;;;;;;5115495;28;20554;-70
2021/11/29 12:14:17;;;;;;;7.95;5.82;;;;;;;;;;5115715;28;20614;-69
2021/11/29 12:16:46;;;;;;;7.60;5.10;;;;;;;;;;5115175;28;20178;-69
2021/11/29 12:19:35;;;;;;;8.27;5.93;;;;;;;;;;5115357;28;20229;-70
2021/11/29 12:22:03;;;;;;;16.55;6.70;;;;;;;;;;5114743;28;20233;-69
2021/11/29 12:24:38;;;;;;;5.60;5.00;;;;;;;;;;5115258;28;20284;-69
2021/11/29 12:27:06;;;;;;;10.93;5.40;;;;;;;;;;5115781;28;20212;-69
2021/11/29 12:30:00;;;;;;;9.35;6.72;;;;;;;;;;5115539;28;20224;-70
2021/11/29 12:32:29;;;;;;;7.43;6.00;;;;;;;;;;5115036;28;20312;-69
2021/11/29 12:35:01;;;;;;;8.70;5.68;;;;;;;;;;5114687;28;20331;-69
2021/11/29 12:37:30;;;;;;;30.92;11.20;;;;;;;;;;5114743;28;20688;-68
2021/11/29 12:39:59;;;;;;;9.45;7.35;;;;;;;;;;5114731;28;20194;-68
2021/11/29 12:42:46;;;;;;;11.52;7.05;;;;;;;;;;5114804;28;20309;-68
2021/11/29 12:45:14;;;;;;;10.35;6.65;;;;;;;;;;5115465;28;20200;-69
2021/11/29 12:47:45;;;;;;;7.43;6.47;;;;;;;;;;5115141;28;20271;-69
2021/11/29 12:50:27;;;;;;;8.40;6.75;;;;;;;;;;5115226;28;20225;-69
2021/11/29 12:53:07;;;;;;;10.40;7.55;;;;;;;;;;5114833;28;20323;-69
2021/11/29 12:55:36;;;;;;;9.02;7.60;;;;;;;;;;5115232;28;20183;-69
2021/11/29 12:58:18;;;;;;;9.18;6.28;;;;;;;;;;5114158;28;20197;-69
2021/11/29 13:00:47;;;;;;;9.45;7.85;;;;;;;;;;5114469;28;20189;-69
2021/11/29 13:03:16;;;;;;;11.35;8.52;;;;;;;;;;5114838;28;20741;-68
2021/11/29 13:05:44;;;;;;;10.23;6.80;;;;;;;;;;5115140;28;20310;-68
2021/11/29 13:08:13;;;;;;;9.45;7.82;;;;;;;;;;5114230;28;20281;-68
2021/11/29 13:10:55;;;;;;;8.38;6.40;;;;;;;;;;5114408;28;20262;-68
2021/11/29 13:13:32;;;;;;;14.70;7.00;;;;;;;;;;5114997;28;20188;-73
2021/11/29 13:16:00;;;;;;;9.88;7.65;;;;;;;;;;5114515;28;20186;-71
2021/11/29 13:18:49;;;;;;;11.15;8.15;;;;;;;;;;5114482;28;20284;-71
2021/11/29 13:21:20;;;;;;;10.23;7.78;;;;;;;;;;5113835;28;20284;-70
2021/11/29 13:23:48;;;;;;;9.18;7.20;;;;;;;;;;5113910;28;20251;-71
2021/11/29 13:26:16;;;;;;;8.63;7.00;;;;;;;;;;5113017;28;20222;-71
2021/11/29 13:28:43;;;;;;;9.35;6.55;;;;;;;;;;5113457;28;20287;-71
2021/11/29 13:31:13;;;;;;;11.10;8.25;;;;;;;;;;5113290;28;20284;-71
2021/11/29 13:33:40;;;;;;;10.15;7.20;;;;;;;;;;5112822;28;20231;-71
2021/11/29 13:36:10;;;;;;;14.65;7.93;;;;;;;;;;5113352;28;20222;-71
2021/11/29 13:38:39;;;;;;;11.63;8.07;;;;;;;;;;5112757;28;20193;-71
2021/11/29 13:41:07;;;;;;;10.57;8.05;;;;;;;;;;5113379;28;20617;-71
2021/11/29 13:43:35;;;;;;;9.55;6.53;;;;;;;;;;5112485;28;20314;-70
2021/11/29 13:46:12;;;;;;;13.25;8.73;;;;;;;;;;5113379;28;20190;-71
2021/11/29 13:48:40;;;;;;;10.32;7.55;;;;;;;;;;5113323;28;20678;-71
2021/11/29 13:51:07;;;;;;;11.65;7.85;;;;;;;;;;5114286;28;20628;-71
2021/11/29 13:53:36;;;;;;;12.20;8.93;;;;;;;;;;5113869;28;20212;-71
2021/11/29 13:56:05;;;;;;;12.80;7.78;;;;;;;;;;5113436;28;20654;-71
2021/11/29 13:58:34;;;;;;;12.60;8.40;;;;;;;;;;5113416;28;20745;-71
2021/11/29 14:01:02;;;;;;;11.55;8.45;;;;;;;;;;5113724;28;20304;-71
2021/11/29 14:03:30;;;;;;;12.85;7.57;;;;;;;;;;5113267;28;20751;-71
2021/11/29 14:05:59;;;;;;;12.45;8.70;;;;;;;;;;5113616;28;20238;-70
2021/11/29 14:08:27;;;;;;;11.82;9.02;;;;;;;;;;5113391;28;20193;-70
2021/11/29 14:10:58;;;;;;;12.30;9.00;;;;;;;;;;5112064;28;20280;-71
2021/11/29 14:13:27;;;;;;;11.18;8.95;;;;;;;;;;5112865;28;20194;-71
2021/11/29 14:16:05;;;;;;;10.13;7.20;;;;;;;;;;5113287;28;20193;-72
2021/11/29 14:18:33;;;;;;;12.50;8.70;;;;;;;;;;5113460;28;20202;-72
2021/11/29 14:21:02;;;;;;;12.50;9.15;;;;;;;;;;5113092;28;20193;-72
2021/11/29 14:23:33;;;;;;;12.77;8.73;;;;;;;;;;5113293;28;20225;-73
2021/11/29 14:26:01;;;;;;;11.27;8.07;;;;;;;;;;5113415;28;20220;-71
2021/11/29 14:28:29;;;;;;;14.27;8.25;;;;;;;;;;5112878;28;20289;-71
2021/11/29 14:30:57;;;;;;;12.05;8.77;;;;;;;;;;5113316;28;20200;-72
2021/11/29 14:33:27;;;;;;;12.68;8.13;;;;;;;;;;5113064;28;20272;-71
2021/11/29 14:35:55;;;;;;;10.10;7.75;;;;;;;;;;5113251;28;20268;-71
2021/11/29 14:38:22;;;;;;;11.52;8.38;;;;;;;;;;5113450;28;20288;-71
2021/11/29 14:40:49;;;;;;;10.68;7.35;;;;;;;;;;5113016;28;20285;-71
2021/11/29 14:43:17;;;;;;;9.40;7.72;;;;;;;;;;5113233;28;20740;-71
2021/11/29 14:45:48;;;;;;;10.30;8.00;;;;;;;;;;5112940;28;20226;-71
2021/11/29 14:48:19;;;;;;;11.80;7.57;;;;;;;;;;5112637;28;20182;-71